sensor_id;sensor_type;location;lat;lon;timestamp;P1;durP1;ratioP1;P2;durP2;ratioP2
17398;SDS011;8817;48.170;8.592;2022-09-03T00:00:43;4.38;;;4.00;;
17398;SDS011;8817;48.170;8.592;2022-09-03T00:03:16;4.10;;;3.90;;
17398;SDS011;8817;48.170;8.592;2022-09-03T00:05:48;4.22;;;3.92;;
17398;SDS011;8817;48.170;8.592;2022-09-03T00:08:22;5.80;;;4.28;;
17398;SDS011;8817;48.170;8.592;2022-09-03T00:10:56;4.47;;;4.18;;
17398;SDS011;8817;48.170;8.592;2022-09-03T00:13:30;4.20;;;3.90;;
17398;SDS011;8817;48.170;8.592;2022-09-03T00:16:02;4.40;;;4.10;;
17398;SDS011;8817;48.170;8.592;2022-09-03T00:18:34;4.47;;;4.18;;
17398;SDS011;8817;48.170;8.592;2022-09-03T00:21:08;4.43;;;4.13;;
17398;SDS011;8817;48.170;8.592;2022-09-03T00:23:39;4.15;;;3.95;;
17398;SDS011;8817;48.170;8.592;2022-09-03T00:26:15;4.72;;;4.32;;
17398;SDS011;8817;48.170;8.592;2022-09-03T00:28:50;4.40;;;4.10;;
17398;SDS011;8817;48.170;8.592;2022-09-03T00:31:27;4.40;;;4.10;;
17398;SDS011;8817;48.170;8.592;2022-09-03T00:33:58;4.57;;;4.18;;
17398;SDS011;8817;48.170;8.592;2022-09-03T00:36:30;4.72;;;4.38;;
17398;SDS011;8817;48.170;8.592;2022-09-03T00:39:07;5.60;;;4.65;;
17398;SDS011;8817;48.170;8.592;2022-09-03T00:41:36;6.15;;;4.70;;
17398;SDS011;8817;48.170;8.592;2022-09-03T00:44:13;5.00;;;4.60;;
17398;SDS011;8817;48.170;8.592;2022-09-03T00:47:01;4.60;;;4.30;;
17398;SDS011;8817;48.170;8.592;2022-09-03T00:49:38;4.60;;;4.20;;
17398;SDS011;8817;48.170;8.592;2022-09-03T00:52:14;4.70;;;4.40;;
17398;SDS011;8817;48.170;8.592;2022-09-03T00:54:52;5.55;;;4.50;;
17398;SDS011;8817;48.170;8.592;2022-09-03T00:57:27;5.07;;;4.68;;
17398;SDS011;8817;48.170;8.592;2022-09-03T01:00:03;4.95;;;4.47;;
17398;SDS011;8817;48.170;8.592;2022-09-03T01:02:38;5.20;;;4.25;;
17398;SDS011;8817;48.170;8.592;2022-09-03T01:05:20;4.93;;;4.50;;
17398;SDS011;8817;48.170;8.592;2022-09-03T01:07:58;4.93;;;4.63;;
17398;SDS011;8817;48.170;8.592;2022-09-03T01:10:38;5.20;;;4.70;;
17398;SDS011;8817;48.170;8.592;2022-09-03T01:13:12;5.05;;;4.65;;
17398;SDS011;8817;48.170;8.592;2022-09-03T01:15:44;4.75;;;4.35;;
17398;SDS011;8817;48.170;8.592;2022-09-03T01:18:21;5.03;;;4.63;;
17398;SDS011;8817;48.170;8.592;2022-09-03T01:20:57;4.88;;;4.47;;
17398;SDS011;8817;48.170;8.592;2022-09-03T01:23:47;5.10;;;4.20;;
17398;SDS011;8817;48.170;8.592;2022-09-03T01:26:41;4.72;;;4.35;;
17398;SDS011;8817;48.170;8.592;2022-09-03T01:29:19;4.50;;;4.20;;
17398;SDS011;8817;48.170;8.592;2022-09-03T01:31:56;4.28;;;3.97;;
17398;SDS011;8817;48.170;8.592;2022-09-03T01:34:31;4.05;;;3.85;;
17398;SDS011;8817;48.170;8.592;2022-09-03T01:37:11;4.15;;;3.88;;
17398;SDS011;8817;48.170;8.592;2022-09-03T01:39:48;7.95;;;4.00;;
17398;SDS011;8817;48.170;8.592;2022-09-03T01:42:28;4.75;;;4.40;;
17398;SDS011;8817;48.170;8.592;2022-09-03T01:45:16;4.57;;;4.25;;
17398;SDS011;8817;48.170;8.592;2022-09-03T01:47:57;4.35;;;4.07;;
17398;SDS011;8817;48.170;8.592;2022-09-03T01:50:38;4.32;;;4.07;;
17398;SDS011;8817;48.170;8.592;2022-09-03T01:53:14;4.75;;;4.35;;
17398;SDS011;8817;48.170;8.592;2022-09-03T01:55:54;4.50;;;4.10;;
17398;SDS011;8817;48.170;8.592;2022-09-03T01:58:34;4.40;;;4.00;;
17398;SDS011;8817;48.170;8.592;2022-09-03T02:01:11;4.40;;;4.00;;
17398;SDS011;8817;48.170;8.592;2022-09-03T02:03:42;4.15;;;3.92;;
17398;SDS011;8817;48.170;8.592;2022-09-03T02:06:12;4.68;;;4.20;;
17398;SDS011;8817;48.170;8.592;2022-09-03T02:08:39;4.47;;;4.07;;
17398;SDS011;8817;48.170;8.592;2022-09-03T02:11:07;4.18;;;3.88;;
17398;SDS011;8817;48.170;8.592;2022-09-03T02:13:36;4.50;;;4.20;;
17398;SDS011;8817;48.170;8.592;2022-09-03T02:16:09;6.70;;;4.07;;
17398;SDS011;8817;48.170;8.592;2022-09-03T02:18:40;4.20;;;3.97;;
17398;SDS011;8817;48.170;8.592;2022-09-03T02:21:11;4.10;;;3.80;;
17398;SDS011;8817;48.170;8.592;2022-09-03T02:23:41;4.80;;;4.40;;
17398;SDS011;8817;48.170;8.592;2022-09-03T02:26:08;4.55;;;4.25;;
17398;SDS011;8817;48.170;8.592;2022-09-03T02:28:37;4.22;;;3.92;;
17398;SDS011;8817;48.170;8.592;2022-09-03T02:31:04;4.65;;;4.28;;
17398;SDS011;8817;48.170;8.592;2022-09-03T02:33:34;4.53;;;4.22;;
17398;SDS011;8817;48.170;8.592;2022-09-03T02:36:03;4.90;;;4.50;;
17398;SDS011;8817;48.170;8.592;2022-09-03T02:38:31;4.20;;;3.95;;
17398;SDS011;8817;48.170;8.592;2022-09-03T02:40:59;3.90;;;3.70;;
17398;SDS011;8817;48.170;8.592;2022-09-03T02:43:32;4.40;;;4.10;;
17398;SDS011;8817;48.170;8.592;2022-09-03T02:46:06;4.07;;;3.80;;
17398;SDS011;8817;48.170;8.592;2022-09-03T02:48:39;4.07;;;3.88;;
17398;SDS011;8817;48.170;8.592;2022-09-03T02:51:06;4.60;;;4.20;;
17398;SDS011;8817;48.170;8.592;2022-09-03T02:53:32;4.25;;;3.95;;
17398;SDS011;8817;48.170;8.592;2022-09-03T02:56:00;4.38;;;4.07;;
17398;SDS011;8817;48.170;8.592;2022-09-03T02:58:27;4.50;;;4.20;;
17398;SDS011;8817;48.170;8.592;2022-09-03T03:00:56;4.20;;;3.90;;
17398;SDS011;8817;48.170;8.592;2022-09-03T03:03:23;4.15;;;3.72;;
17398;SDS011;8817;48.170;8.592;2022-09-03T03:05:52;3.70;;;3.50;;
17398;SDS011;8817;48.170;8.592;2022-09-03T03:08:22;6.82;;;3.92;;
17398;SDS011;8817;48.170;8.592;2022-09-03T03:10:50;4.43;;;4.03;;
17398;SDS011;8817;48.170;8.592;2022-09-03T03:13:20;5.70;;;3.80;;
17398;SDS011;8817;48.170;8.592;2022-09-03T03:15:48;4.18;;;3.88;;
17398;SDS011;8817;48.170;8.592;2022-09-03T03:18:15;4.35;;;4.00;;
17398;SDS011;8817;48.170;8.592;2022-09-03T03:20:42;4.38;;;4.07;;
17398;SDS011;8817;48.170;8.592;2022-09-03T03:23:10;4.63;;;4.30;;
17398;SDS011;8817;48.170;8.592;2022-09-03T03:25:38;4.50;;;4.20;;
17398;SDS011;8817;48.170;8.592;2022-09-03T03:28:05;4.60;;;4.30;;
17398;SDS011;8817;48.170;8.592;2022-09-03T03:30:33;4.47;;;4.18;;
17398;SDS011;8817;48.170;8.592;2022-09-03T03:33:02;4.78;;;4.32;;
17398;SDS011;8817;48.170;8.592;2022-09-03T03:35:30;4.90;;;4.50;;
17398;SDS011;8817;48.170;8.592;2022-09-03T03:37:57;4.90;;;4.50;;
17398;SDS011;8817;48.170;8.592;2022-09-03T03:40:25;4.65;;;4.35;;
17398;SDS011;8817;48.170;8.592;2022-09-03T03:42:52;4.35;;;4.05;;
17398;SDS011;8817;48.170;8.592;2022-09-03T03:45:19;5.70;;;4.35;;
17398;SDS011;8817;48.170;8.592;2022-09-03T03:47:46;4.47;;;4.18;;
17398;SDS011;8817;48.170;8.592;2022-09-03T03:50:13;4.80;;;4.40;;
17398;SDS011;8817;48.170;8.592;2022-09-03T03:52:41;4.80;;;4.40;;
17398;SDS011;8817;48.170;8.592;2022-09-03T03:55:08;5.38;;;4.85;;
17398;SDS011;8817;48.170;8.592;2022-09-03T03:57:37;5.00;;;4.50;;
17398;SDS011;8817;48.170;8.592;2022-09-03T04:00:04;5.05;;;4.65;;
17398;SDS011;8817;48.170;8.592;2022-09-03T04:02:32;4.88;;;4.47;;
17398;SDS011;8817;48.170;8.592;2022-09-03T04:04:59;5.35;;;4.57;;
17398;SDS011;8817;48.170;8.592;2022-09-03T04:07:26;5.57;;;4.68;;
17398;SDS011;8817;48.170;8.592;2022-09-03T04:09:53;5.28;;;4.82;;
17398;SDS011;8817;48.170;8.592;2022-09-03T04:12:20;5.13;;;4.63;;
17398;SDS011;8817;48.170;8.592;2022-09-03T04:14:48;4.93;;;4.50;;
17398;SDS011;8817;48.170;8.592;2022-09-03T04:17:15;4.90;;;4.50;;
17398;SDS011;8817;48.170;8.592;2022-09-03T04:19:42;4.90;;;4.50;;
17398;SDS011;8817;48.170;8.592;2022-09-03T04:22:12;5.22;;;4.72;;
17398;SDS011;8817;48.170;8.592;2022-09-03T04:24:39;5.40;;;4.90;;
17398;SDS011;8817;48.170;8.592;2022-09-03T04:27:06;5.00;;;4.60;;
17398;SDS011;8817;48.170;8.592;2022-09-03T04:29:33;5.75;;;5.15;;
17398;SDS011;8817;48.170;8.592;2022-09-03T04:32:02;5.35;;;4.88;;
17398;SDS011;8817;48.170;8.592;2022-09-03T04:34:47;5.50;;;5.00;;
17398;SDS011;8817;48.170;8.592;2022-09-03T04:37:13;5.78;;;5.28;;
17398;SDS011;8817;48.170;8.592;2022-09-03T04:39:43;5.28;;;4.88;;
17398;SDS011;8817;48.170;8.592;2022-09-03T04:42:10;5.28;;;4.80;;
17398;SDS011;8817;48.170;8.592;2022-09-03T04:44:37;5.85;;;5.25;;
17398;SDS011;8817;48.170;8.592;2022-09-03T04:47:06;5.35;;;4.95;;
17398;SDS011;8817;48.170;8.592;2022-09-03T04:49:33;5.53;;;5.03;;
17398;SDS011;8817;48.170;8.592;2022-09-03T04:52:00;6.05;;;5.03;;
17398;SDS011;8817;48.170;8.592;2022-09-03T04:54:27;5.82;;;5.32;;
17398;SDS011;8817;48.170;8.592;2022-09-03T04:56:54;5.68;;;5.15;;
17398;SDS011;8817;48.170;8.592;2022-09-03T04:59:21;5.70;;;5.20;;
17398;SDS011;8817;48.170;8.592;2022-09-03T05:01:49;5.57;;;5.07;;
17398;SDS011;8817;48.170;8.592;2022-09-03T05:04:18;5.70;;;5.20;;
17398;SDS011;8817;48.170;8.592;2022-09-03T05:06:45;5.65;;;5.25;;
17398;SDS011;8817;48.170;8.592;2022-09-03T05:09:12;5.70;;;5.20;;
17398;SDS011;8817;48.170;8.592;2022-09-03T05:11:39;5.75;;;5.25;;
17398;SDS011;8817;48.170;8.592;2022-09-03T05:14:06;6.10;;;5.50;;
17398;SDS011;8817;48.170;8.592;2022-09-03T05:16:35;9.48;;;5.75;;
17398;SDS011;8817;48.170;8.592;2022-09-03T05:19:03;6.28;;;5.60;;
17398;SDS011;8817;48.170;8.592;2022-09-03T05:21:33;6.47;;;5.82;;
17398;SDS011;8817;48.170;8.592;2022-09-03T05:24:01;6.45;;;5.80;;
17398;SDS011;8817;48.170;8.592;2022-09-03T05:26:29;7.15;;;6.40;;
17398;SDS011;8817;48.170;8.592;2022-09-03T05:28:58;8.52;;;6.65;;
17398;SDS011;8817;48.170;8.592;2022-09-03T05:31:27;7.70;;;6.47;;
17398;SDS011;8817;48.170;8.592;2022-09-03T05:33:56;8.40;;;6.82;;
17398;SDS011;8817;48.170;8.592;2022-09-03T05:36:25;8.82;;;6.32;;
17398;SDS011;8817;48.170;8.592;2022-09-03T05:38:55;7.22;;;6.43;;
17398;SDS011;8817;48.170;8.592;2022-09-03T05:41:22;8.95;;;6.38;;
17398;SDS011;8817;48.170;8.592;2022-09-03T05:43:50;6.65;;;5.95;;
17398;SDS011;8817;48.170;8.592;2022-09-03T05:46:19;7.53;;;6.50;;
17398;SDS011;8817;48.170;8.592;2022-09-03T05:48:51;7.82;;;6.43;;
17398;SDS011;8817;48.170;8.592;2022-09-03T05:51:18;9.35;;;6.57;;
17398;SDS011;8817;48.170;8.592;2022-09-03T05:53:45;7.72;;;6.43;;
17398;SDS011;8817;48.170;8.592;2022-09-03T05:56:15;7.97;;;6.25;;
17398;SDS011;8817;48.170;8.592;2022-09-03T05:58:45;7.70;;;6.03;;
17398;SDS011;8817;48.170;8.592;2022-09-03T06:01:13;6.88;;;6.25;;
17398;SDS011;8817;48.170;8.592;2022-09-03T06:03:41;8.70;;;6.75;;
17398;SDS011;8817;48.170;8.592;2022-09-03T06:06:10;7.30;;;6.25;;
17398;SDS011;8817;48.170;8.592;2022-09-03T06:08:38;6.60;;;5.90;;
17398;SDS011;8817;48.170;8.592;2022-09-03T06:11:05;7.15;;;6.15;;
17398;SDS011;8817;48.170;8.592;2022-09-03T06:13:34;8.15;;;5.97;;
17398;SDS011;8817;48.170;8.592;2022-09-03T06:16:02;6.55;;;5.72;;
17398;SDS011;8817;48.170;8.592;2022-09-03T06:18:31;6.75;;;5.78;;
17398;SDS011;8817;48.170;8.592;2022-09-03T06:20:58;6.30;;;5.70;;
17398;SDS011;8817;48.170;8.592;2022-09-03T06:23:26;6.18;;;5.57;;
17398;SDS011;8817;48.170;8.592;2022-09-03T06:26:01;7.22;;;5.90;;
17398;SDS011;8817;48.170;8.592;2022-09-03T06:28:29;6.75;;;6.05;;
17398;SDS011;8817;48.170;8.592;2022-09-03T06:30:59;6.35;;;5.68;;
17398;SDS011;8817;48.170;8.592;2022-09-03T06:33:27;6.35;;;5.78;;
17398;SDS011;8817;48.170;8.592;2022-09-03T06:35:55;7.32;;;5.85;;
17398;SDS011;8817;48.170;8.592;2022-09-03T06:38:23;7.20;;;6.00;;
17398;SDS011;8817;48.170;8.592;2022-09-03T06:40:55;8.02;;;5.97;;
17398;SDS011;8817;48.170;8.592;2022-09-03T06:43:23;8.70;;;5.82;;
17398;SDS011;8817;48.170;8.592;2022-09-03T06:45:55;6.18;;;5.45;;
17398;SDS011;8817;48.170;8.592;2022-09-03T06:48:24;6.38;;;5.78;;
17398;SDS011;8817;48.170;8.592;2022-09-03T06:50:52;7.05;;;6.15;;
17398;SDS011;8817;48.170;8.592;2022-09-03T06:53:21;6.05;;;5.45;;
17398;SDS011;8817;48.170;8.592;2022-09-03T06:55:52;7.32;;;5.55;;
17398;SDS011;8817;48.170;8.592;2022-09-03T06:58:20;6.00;;;5.45;;
17398;SDS011;8817;48.170;8.592;2022-09-03T07:00:48;6.15;;;5.50;;
17398;SDS011;8817;48.170;8.592;2022-09-03T07:03:16;6.05;;;5.45;;
17398;SDS011;8817;48.170;8.592;2022-09-03T07:05:44;6.50;;;5.90;;
17398;SDS011;8817;48.170;8.592;2022-09-03T07:08:11;5.93;;;5.30;;
17398;SDS011;8817;48.170;8.592;2022-09-03T07:10:38;6.90;;;5.70;;
17398;SDS011;8817;48.170;8.592;2022-09-03T07:13:07;7.78;;;4.95;;
17398;SDS011;8817;48.170;8.592;2022-09-03T07:15:34;5.70;;;5.10;;
17398;SDS011;8817;48.170;8.592;2022-09-03T07:18:01;5.22;;;4.72;;
17398;SDS011;8817;48.170;8.592;2022-09-03T07:20:28;4.93;;;4.45;;
17398;SDS011;8817;48.170;8.592;2022-09-03T07:22:56;5.07;;;4.68;;
17398;SDS011;8817;48.170;8.592;2022-09-03T07:25:23;5.03;;;4.63;;
17398;SDS011;8817;48.170;8.592;2022-09-03T07:27:51;5.20;;;4.70;;
17398;SDS011;8817;48.170;8.592;2022-09-03T07:30:18;5.07;;;4.68;;
17398;SDS011;8817;48.170;8.592;2022-09-03T07:32:45;4.88;;;4.45;;
17398;SDS011;8817;48.170;8.592;2022-09-03T07:35:13;4.82;;;4.43;;
17398;SDS011;8817;48.170;8.592;2022-09-03T07:37:40;5.07;;;4.65;;
17398;SDS011;8817;48.170;8.592;2022-09-03T07:40:09;4.72;;;4.43;;
17398;SDS011;8817;48.170;8.592;2022-09-03T07:42:38;5.00;;;4.60;;
17398;SDS011;8817;48.170;8.592;2022-09-03T07:45:05;4.53;;;4.22;;
17398;SDS011;8817;48.170;8.592;2022-09-03T07:47:34;4.70;;;4.40;;
17398;SDS011;8817;48.170;8.592;2022-09-03T07:50:02;5.00;;;4.50;;
17398;SDS011;8817;48.170;8.592;2022-09-03T07:52:29;4.35;;;4.10;;
17398;SDS011;8817;48.170;8.592;2022-09-03T07:54:57;4.90;;;4.50;;
17398;SDS011;8817;48.170;8.592;2022-09-03T07:57:25;4.35;;;4.15;;
17398;SDS011;8817;48.170;8.592;2022-09-03T07:59:52;4.40;;;4.15;;
17398;SDS011;8817;48.170;8.592;2022-09-03T08:02:20;4.60;;;4.30;;
17398;SDS011;8817;48.170;8.592;2022-09-03T08:04:47;4.00;;;3.80;;
17398;SDS011;8817;48.170;8.592;2022-09-03T08:07:13;4.57;;;4.18;;
17398;SDS011;8817;48.170;8.592;2022-09-03T08:09:40;4.57;;;4.28;;
17398;SDS011;8817;48.170;8.592;2022-09-03T08:12:07;4.28;;;4.00;;
17398;SDS011;8817;48.170;8.592;2022-09-03T08:14:36;4.35;;;3.97;;
17398;SDS011;8817;48.170;8.592;2022-09-03T08:17:03;4.57;;;4.28;;
17398;SDS011;8817;48.170;8.592;2022-09-03T08:19:31;4.40;;;4.20;;
17398;SDS011;8817;48.170;8.592;2022-09-03T08:21:59;4.30;;;4.00;;
17398;SDS011;8817;48.170;8.592;2022-09-03T08:24:26;4.60;;;4.30;;
17398;SDS011;8817;48.170;8.592;2022-09-03T08:26:53;4.50;;;4.20;;
17398;SDS011;8817;48.170;8.592;2022-09-03T08:29:20;4.68;;;4.30;;
17398;SDS011;8817;48.170;8.592;2022-09-03T08:31:48;3.90;;;3.70;;
17398;SDS011;8817;48.170;8.592;2022-09-03T08:34:15;4.43;;;4.20;;
17398;SDS011;8817;48.170;8.592;2022-09-03T08:36:42;4.00;;;3.80;;
17398;SDS011;8817;48.170;8.592;2022-09-03T08:39:10;4.30;;;4.00;;
17398;SDS011;8817;48.170;8.592;2022-09-03T08:41:41;4.13;;;3.92;;
17398;SDS011;8817;48.170;8.592;2022-09-03T08:44:21;3.83;;;3.70;;
17398;SDS011;8817;48.170;8.592;2022-09-03T08:46:54;3.83;;;3.63;;
17398;SDS011;8817;48.170;8.592;2022-09-03T08:49:26;4.18;;;3.92;;
17398;SDS011;8817;48.170;8.592;2022-09-03T08:52:00;5.40;;;4.05;;
17398;SDS011;8817;48.170;8.592;2022-09-03T08:54:30;4.40;;;4.13;;
17398;SDS011;8817;48.170;8.592;2022-09-03T08:56:59;3.90;;;3.70;;
17398;SDS011;8817;48.170;8.592;2022-09-03T08:59:28;4.35;;;4.15;;
17398;SDS011;8817;48.170;8.592;2022-09-03T09:01:58;4.30;;;4.00;;
17398;SDS011;8817;48.170;8.592;2022-09-03T09:04:36;4.25;;;4.00;;
17398;SDS011;8817;48.170;8.592;2022-09-03T09:07:14;4.03;;;3.83;;
17398;SDS011;8817;48.170;8.592;2022-09-03T09:09:48;4.20;;;4.00;;
17398;SDS011;8817;48.170;8.592;2022-09-03T09:12:26;4.97;;;4.57;;
17398;SDS011;8817;48.170;8.592;2022-09-03T09:15:05;4.63;;;4.30;;
17398;SDS011;8817;48.170;8.592;2022-09-03T09:17:40;4.78;;;3.88;;
17398;SDS011;8817;48.170;8.592;2022-09-03T09:20:17;4.18;;;3.97;;
17398;SDS011;8817;48.170;8.592;2022-09-03T09:22:52;4.20;;;3.90;;
17398;SDS011;8817;48.170;8.592;2022-09-03T09:25:23;4.50;;;4.30;;
17398;SDS011;8817;48.170;8.592;2022-09-03T09:27:52;4.20;;;4.00;;
17398;SDS011;8817;48.170;8.592;2022-09-03T09:30:24;3.97;;;3.83;;
17398;SDS011;8817;48.170;8.592;2022-09-03T09:32:52;4.55;;;4.22;;
17398;SDS011;8817;48.170;8.592;2022-09-03T09:35:20;4.35;;;4.15;;
17398;SDS011;8817;48.170;8.592;2022-09-03T09:37:51;6.75;;;4.45;;
17398;SDS011;8817;48.170;8.592;2022-09-03T09:40:23;4.30;;;4.10;;
17398;SDS011;8817;48.170;8.592;2022-09-03T09:43:02;4.25;;;4.05;;
17398;SDS011;8817;48.170;8.592;2022-09-03T09:45:30;4.50;;;4.30;;
17398;SDS011;8817;48.170;8.592;2022-09-03T09:47:59;4.75;;;4.40;;
17398;SDS011;8817;48.170;8.592;2022-09-03T09:50:28;4.22;;;4.03;;
17398;SDS011;8817;48.170;8.592;2022-09-03T09:53:01;4.70;;;4.50;;
17398;SDS011;8817;48.170;8.592;2022-09-03T09:55:32;4.47;;;4.18;;
17398;SDS011;8817;48.170;8.592;2022-09-03T09:58:06;4.60;;;4.40;;
17398;SDS011;8817;48.170;8.592;2022-09-03T10:00:35;4.30;;;4.10;;
17398;SDS011;8817;48.170;8.592;2022-09-03T10:03:09;5.00;;;4.70;;
17398;SDS011;8817;48.170;8.592;2022-09-03T10:05:37;4.55;;;4.25;;
17398;SDS011;8817;48.170;8.592;2022-09-03T10:08:06;5.05;;;4.72;;
17398;SDS011;8817;48.170;8.592;2022-09-03T10:10:46;4.38;;;4.18;;
17398;SDS011;8817;48.170;8.592;2022-09-03T10:13:16;4.82;;;4.47;;
17398;SDS011;8817;48.170;8.592;2022-09-03T10:15:47;4.60;;;4.38;;
17398;SDS011;8817;48.170;8.592;2022-09-03T10:18:19;4.60;;;4.40;;
17398;SDS011;8817;48.170;8.592;2022-09-03T10:20:54;4.90;;;4.60;;
17398;SDS011;8817;48.170;8.592;2022-09-03T10:23:31;5.10;;;4.68;;
17398;SDS011;8817;48.170;8.592;2022-09-03T10:26:05;5.05;;;4.75;;
17398;SDS011;8817;48.170;8.592;2022-09-03T10:28:37;4.80;;;4.50;;
17398;SDS011;8817;48.170;8.592;2022-09-03T10:31:12;5.00;;;4.60;;
17398;SDS011;8817;48.170;8.592;2022-09-03T10:33:51;4.75;;;4.30;;
17398;SDS011;8817;48.170;8.592;2022-09-03T10:36:23;4.97;;;4.68;;
17398;SDS011;8817;48.170;8.592;2022-09-03T10:38:58;6.28;;;4.55;;
17398;SDS011;8817;48.170;8.592;2022-09-03T10:41:34;4.60;;;4.35;;
17398;SDS011;8817;48.170;8.592;2022-09-03T10:47:02;3.40;;;3.30;;
17398;SDS011;8817;48.170;8.592;2022-09-03T10:49:46;3.75;;;3.65;;
17398;SDS011;8817;48.170;8.592;2022-09-03T10:52:19;3.47;;;3.42;;
17398;SDS011;8817;48.170;8.592;2022-09-03T10:55:02;3.78;;;3.58;;
17398;SDS011;8817;48.170;8.592;2022-09-03T10:57:41;3.50;;;3.40;;
17398;SDS011;8817;48.170;8.592;2022-09-03T11:00:14;3.50;;;3.40;;
17398;SDS011;8817;48.170;8.592;2022-09-03T11:05:40;3.72;;;3.53;;
17398;SDS011;8817;48.170;8.592;2022-09-03T11:08:20;3.60;;;3.40;;
17398;SDS011;8817;48.170;8.592;2022-09-03T11:10:51;3.72;;;3.53;;
17398;SDS011;8817;48.170;8.592;2022-09-03T11:13:21;3.25;;;3.25;;
17398;SDS011;8817;48.170;8.592;2022-09-03T11:15:52;3.60;;;3.50;;
17398;SDS011;8817;48.170;8.592;2022-09-03T11:18:24;3.95;;;3.45;;
17398;SDS011;8817;48.170;8.592;2022-09-03T11:20:56;4.28;;;3.88;;
17398;SDS011;8817;48.170;8.592;2022-09-03T11:23:29;5.22;;;3.60;;
17398;SDS011;8817;48.170;8.592;2022-09-03T11:26:03;3.55;;;3.22;;
17398;SDS011;8817;48.170;8.592;2022-09-03T11:28:37;3.30;;;3.30;;
17398;SDS011;8817;48.170;8.592;2022-09-03T11:31:13;3.40;;;3.20;;
17398;SDS011;8817;48.170;8.592;2022-09-03T11:33:48;3.05;;;2.95;;
17398;SDS011;8817;48.170;8.592;2022-09-03T11:36:27;3.10;;;3.00;;
17398;SDS011;8817;48.170;8.592;2022-09-03T11:38:56;3.20;;;3.10;;
17398;SDS011;8817;48.170;8.592;2022-09-03T11:41:24;3.20;;;3.10;;
17398;SDS011;8817;48.170;8.592;2022-09-03T11:43:53;3.10;;;3.00;;
17398;SDS011;8817;48.170;8.592;2022-09-03T11:46:27;3.30;;;3.20;;
17398;SDS011;8817;48.170;8.592;2022-09-03T11:48:56;3.35;;;3.20;;
17398;SDS011;8817;48.170;8.592;2022-09-03T11:51:37;3.30;;;3.20;;
17398;SDS011;8817;48.170;8.592;2022-09-03T11:54:06;3.50;;;3.20;;
17398;SDS011;8817;48.170;8.592;2022-09-03T11:56:50;3.20;;;3.10;;
17398;SDS011;8817;48.170;8.592;2022-09-03T11:59:34;4.72;;;3.20;;
17398;SDS011;8817;48.170;8.592;2022-09-03T12:02:03;2.80;;;2.70;;
17398;SDS011;8817;48.170;8.592;2022-09-03T12:04:37;3.17;;;3.08;;
17398;SDS011;8817;48.170;8.592;2022-09-03T12:10:18;2.90;;;2.83;;
17398;SDS011;8817;48.170;8.592;2022-09-03T12:12:57;3.08;;;2.83;;
17398;SDS011;8817;48.170;8.592;2022-09-03T12:15:37;2.88;;;2.72;;
17398;SDS011;8817;48.170;8.592;2022-09-03T12:18:14;2.70;;;2.70;;
17398;SDS011;8817;48.170;8.592;2022-09-03T12:20:45;2.80;;;2.80;;
17398;SDS011;8817;48.170;8.592;2022-09-03T12:23:24;2.70;;;2.70;;
17398;SDS011;8817;48.170;8.592;2022-09-03T12:25:54;2.90;;;2.80;;
17398;SDS011;8817;48.170;8.592;2022-09-03T12:28:21;3.05;;;2.85;;
17398;SDS011;8817;48.170;8.592;2022-09-03T12:30:51;2.90;;;2.80;;
17398;SDS011;8817;48.170;8.592;2022-09-03T12:33:19;2.78;;;2.67;;
17398;SDS011;8817;48.170;8.592;2022-09-03T12:35:56;2.80;;;2.65;;
17398;SDS011;8817;48.170;8.592;2022-09-03T12:38:23;2.95;;;2.85;;
17398;SDS011;8817;48.170;8.592;2022-09-03T12:40:51;2.60;;;2.60;;
17398;SDS011;8817;48.170;8.592;2022-09-03T12:43:25;2.78;;;2.78;;
17398;SDS011;8817;48.170;8.592;2022-09-03T12:45:53;2.90;;;2.80;;
17398;SDS011;8817;48.170;8.592;2022-09-03T12:48:20;2.70;;;2.70;;
17398;SDS011;8817;48.170;8.592;2022-09-03T12:50:48;2.92;;;2.83;;
17398;SDS011;8817;48.170;8.592;2022-09-03T12:53:27;2.67;;;2.67;;
17398;SDS011;8817;48.170;8.592;2022-09-03T12:55:58;2.75;;;2.75;;
17398;SDS011;8817;48.170;8.592;2022-09-03T12:58:29;2.60;;;2.60;;
17398;SDS011;8817;48.170;8.592;2022-09-03T13:01:03;2.72;;;2.65;;
17398;SDS011;8817;48.170;8.592;2022-09-03T13:03:43;2.60;;;2.60;;
17398;SDS011;8817;48.170;8.592;2022-09-03T13:06:13;2.90;;;2.80;;
17398;SDS011;8817;48.170;8.592;2022-09-03T13:08:45;3.30;;;3.10;;
17398;SDS011;8817;48.170;8.592;2022-09-03T13:11:19;3.40;;;3.10;;
17398;SDS011;8817;48.170;8.592;2022-09-03T13:13:51;3.10;;;3.00;;
17398;SDS011;8817;48.170;8.592;2022-09-03T13:16:42;2.70;;;2.70;;
17398;SDS011;8817;48.170;8.592;2022-09-03T13:19:26;3.03;;;2.83;;
17398;SDS011;8817;48.170;8.592;2022-09-03T13:22:05;2.70;;;2.70;;
17398;SDS011;8817;48.170;8.592;2022-09-03T13:24:43;3.03;;;3.03;;
17398;SDS011;8817;48.170;8.592;2022-09-03T13:27:24;3.28;;;3.17;;
17398;SDS011;8817;48.170;8.592;2022-09-03T13:30:01;3.30;;;3.30;;
17398;SDS011;8817;48.170;8.592;2022-09-03T13:35:25;3.33;;;3.00;;
17398;SDS011;8817;48.170;8.592;2022-09-03T13:37:57;3.40;;;3.30;;
17398;SDS011;8817;48.170;8.592;2022-09-03T13:40:34;3.60;;;3.50;;
17398;SDS011;8817;48.170;8.592;2022-09-03T13:43:08;2.97;;;2.97;;
17398;SDS011;8817;48.170;8.592;2022-09-03T13:45:49;3.60;;;3.40;;
17398;SDS011;8817;48.170;8.592;2022-09-03T13:48:23;3.15;;;3.10;;
17398;SDS011;8817;48.170;8.592;2022-09-03T13:51:14;2.90;;;2.80;;
17398;SDS011;8817;48.170;8.592;2022-09-03T13:53:48;3.00;;;3.00;;
17398;SDS011;8817;48.170;8.592;2022-09-03T13:56:25;2.97;;;2.97;;
17398;SDS011;8817;48.170;8.592;2022-09-03T13:59:04;3.22;;;3.13;;
17398;SDS011;8817;48.170;8.592;2022-09-03T14:01:42;2.92;;;2.90;;
17398;SDS011;8817;48.170;8.592;2022-09-03T14:04:21;3.00;;;3.00;;
17398;SDS011;8817;48.170;8.592;2022-09-03T14:06:56;3.10;;;3.10;;
17398;SDS011;8817;48.170;8.592;2022-09-03T14:09:29;3.10;;;3.00;;
17398;SDS011;8817;48.170;8.592;2022-09-03T14:12:04;2.95;;;2.95;;
17398;SDS011;8817;48.170;8.592;2022-09-03T14:14:52;2.75;;;2.75;;
17398;SDS011;8817;48.170;8.592;2022-09-03T14:17:29;3.03;;;3.03;;
17398;SDS011;8817;48.170;8.592;2022-09-03T14:20:02;2.90;;;2.90;;
17398;SDS011;8817;48.170;8.592;2022-09-03T14:22:43;3.00;;;3.00;;
17398;SDS011;8817;48.170;8.592;2022-09-03T14:25:17;2.67;;;2.67;;
17398;SDS011;8817;48.170;8.592;2022-09-03T14:27:46;2.90;;;2.90;;
17398;SDS011;8817;48.170;8.592;2022-09-03T14:30:19;3.00;;;3.00;;
17398;SDS011;8817;48.170;8.592;2022-09-03T14:32:57;2.70;;;2.70;;
17398;SDS011;8817;48.170;8.592;2022-09-03T14:35:44;3.30;;;3.10;;
17398;SDS011;8817;48.170;8.592;2022-09-03T14:38:29;3.13;;;3.13;;
17398;SDS011;8817;48.170;8.592;2022-09-03T14:41:09;2.90;;;2.90;;
17398;SDS011;8817;48.170;8.592;2022-09-03T14:44:03;3.03;;;3.03;;
17398;SDS011;8817;48.170;8.592;2022-09-03T14:46:57;2.83;;;2.83;;
17398;SDS011;8817;48.170;8.592;2022-09-03T14:49:42;2.97;;;2.97;;
17398;SDS011;8817;48.170;8.592;2022-09-03T14:52:21;3.00;;;3.00;;
17398;SDS011;8817;48.170;8.592;2022-09-03T14:55:14;3.20;;;3.20;;
17398;SDS011;8817;48.170;8.592;2022-09-03T14:57:59;3.70;;;3.70;;
17398;SDS011;8817;48.170;8.592;2022-09-03T15:00:41;3.70;;;3.60;;
17398;SDS011;8817;48.170;8.592;2022-09-03T15:03:24;3.40;;;3.40;;
17398;SDS011;8817;48.170;8.592;2022-09-03T15:06:14;3.20;;;3.20;;
17398;SDS011;8817;48.170;8.592;2022-09-03T15:08:55;3.40;;;3.40;;
17398;SDS011;8817;48.170;8.592;2022-09-03T15:11:45;3.25;;;3.25;;
17398;SDS011;8817;48.170;8.592;2022-09-03T15:14:17;3.38;;;3.30;;
17398;SDS011;8817;48.170;8.592;2022-09-03T15:16:50;3.50;;;3.40;;
17398;SDS011;8817;48.170;8.592;2022-09-03T15:19:35;3.58;;;3.38;;
17398;SDS011;8817;48.170;8.592;2022-09-03T15:22:29;3.30;;;3.30;;
17398;SDS011;8817;48.170;8.592;2022-09-03T15:25:06;3.13;;;3.13;;
17398;SDS011;8817;48.170;8.592;2022-09-03T15:27:50;3.40;;;3.40;;
17398;SDS011;8817;48.170;8.592;2022-09-03T15:30:32;3.10;;;3.10;;
17398;SDS011;8817;48.170;8.592;2022-09-03T15:33:05;3.25;;;3.20;;
17398;SDS011;8817;48.170;8.592;2022-09-03T15:35:44;3.08;;;3.08;;
17398;SDS011;8817;48.170;8.592;2022-09-03T15:38:23;3.40;;;3.40;;
17398;SDS011;8817;48.170;8.592;2022-09-03T15:41:01;3.20;;;3.20;;
17398;SDS011;8817;48.170;8.592;2022-09-03T15:43:32;3.33;;;3.30;;